Time;durP1;ratioP1;P1;durP2;ratioP2;P2;SDS_P1;SDS_P2;PMS_P1;PMS_P2;Temp;Humidity;BMP_temperature;BMP_pressure;BME280_temperature;BME280_humidity;BME280_pressure;Samples;Min_cycle;Max_cycle;Signal;HPM_P1;HPM_P2
2021/01/09 00:02:49;;;;;;;2.17;0.93;;;;;;;;;;10330840;28;20075;-61
2021/01/09 00:07:46;;;;;;;3.63;1.23;;;;;;;;;;10325005;28;20048;-62
2021/01/09 00:12:43;;;;;;;3.30;1.63;;;;;;;;;;10326349;28;20098;-61
2021/01/09 00:17:41;;;;;;;1.50;1.40;;;;;;;;;;10304081;28;20933;-63
2021/01/09 00:22:39;;;;;;;1.57;1.17;;;;;;;;;;10324325;28;20566;-63
2021/01/09 00:27:36;;;;;;;2.77;1.03;;;;;;;;;;10321944;28;20510;-61
2021/01/09 00:32:34;;;;;;;2.20;1.10;;;;;;;;;;10330315;28;20801;-62
2021/01/09 00:37:31;;;;;;;2.72;0.95;;;;;;;;;;10326006;28;20499;-63
2021/01/09 00:42:37;;;;;;;0.50;0.50;;;;;;;;;;10312218;28;20044;-64
2021/01/09 00:47:34;;;;;;;1.60;1.45;;;;;;;;;;10314382;28;20102;-59
2021/01/09 00:52:32;;;;;;;0.30;0.30;;;;;;;;;;10328897;28;20101;-57
2021/01/09 00:57:29;;;;;;;1.93;1.33;;;;;;;;;;10314660;28;20843;-58
2021/01/09 01:02:27;;;;;;;2.37;1.93;;;;;;;;;;10328789;28;20040;-60
2021/01/09 01:07:24;;;;;;;1.67;1.33;;;;;;;;;;10327828;28;20033;-57
2021/01/09 01:12:21;;;;;;;2.33;1.30;;;;;;;;;;10330357;28;20037;-61
2021/01/09 01:17:19;;;;;;;2.70;1.93;;;;;;;;;;10321619;28;20037;-58
2021/01/09 01:22:16;;;;;;;5.60;1.77;;;;;;;;;;10324899;28;20051;-59
2021/01/09 01:27:14;;;;;;;2.00;1.53;;;;;;;;;;10325651;28;20509;-58
2021/01/09 01:32:11;;;;;;;0.73;0.73;;;;;;;;;;10327935;28;20029;-59
2021/01/09 01:37:08;;;;;;;1.30;0.83;;;;;;;;;;10326884;28;20102;-58
2021/01/09 01:42:06;;;;;;;1.60;1.43;;;;;;;;;;10334601;28;20407;-57
2021/01/09 01:47:03;;;;;;;2.47;1.07;;;;;;;;;;10332837;28;20088;-62
2021/01/09 01:52:01;;;;;;;4.03;2.77;;;;;;;;;;10336798;28;20037;-62
2021/01/09 01:57:01;;;;;;;2.83;2.63;;;;;;;;;;10333544;28;20074;-62
2021/01/09 02:02:01;;;;;;;4.85;2.45;;;;;;;;;;10327597;28;20025;-62
2021/01/09 02:07:01;;;;;;;1.25;1.15;;;;;;;;;;10324601;28;20036;-62
2021/01/09 02:11:58;;;;;;;5.88;2.22;;;;;;;;;;10322141;28;20403;-63
2021/01/09 02:16:57;;;;;;;8.47;2.80;;;;;;;;;;10313855;28;20035;-62
2021/01/09 02:21:57;;;;;;;4.47;2.47;;;;;;;;;;10322572;28;20491;-63
2021/01/09 02:26:54;;;;;;;1.63;1.48;;;;;;;;;;10333140;28;20025;-62
2021/01/09 02:31:55;;;;;;;5.67;2.40;;;;;;;;;;10328474;28;20033;-62
2021/01/09 02:36:53;;;;;;;7.25;3.53;;;;;;;;;;10326467;28;20487;-62
2021/01/09 02:41:51;;;;;;;5.90;2.60;;;;;;;;;;10325688;28;20063;-62
2021/01/09 02:46:48;;;;;;;2.67;2.30;;;;;;;;;;10330878;28;20028;-62
2021/01/09 02:51:46;;;;;;;4.23;1.67;;;;;;;;;;10316160;28;20937;-60
2021/01/09 02:56:43;;;;;;;4.10;2.57;;;;;;;;;;10305077;28;20071;-62
2021/01/09 03:01:41;;;;;;;11.43;3.73;;;;;;;;;;10307249;28;20029;-60
2021/01/09 03:06:38;;;;;;;2.13;1.40;;;;;;;;;;10322499;28;20053;-62
2021/01/09 03:11:36;;;;;;;4.27;2.97;;;;;;;;;;10325061;28;20025;-62
2021/01/09 03:16:33;;;;;;;2.67;1.80;;;;;;;;;;10325536;28;20067;-61
2021/01/09 03:21:30;;;;;;;6.87;3.53;;;;;;;;;;10303868;28;20039;-60
2021/01/09 03:26:28;;;;;;;8.60;2.43;;;;;;;;;;10326773;28;20032;-59
2021/01/09 03:31:27;;;;;;;10.50;3.53;;;;;;;;;;10320121;28;20138;-62
2021/01/09 03:36:24;;;;;;;5.05;2.28;;;;;;;;;;10324373;28;20036;-61
2021/01/09 03:41:22;;;;;;;3.27;2.23;;;;;;;;;;10340237;28;20043;-61
2021/01/09 03:46:19;;;;;;;7.97;3.50;;;;;;;;;;10344639;28;20384;-61
2021/01/09 03:51:16;;;;;;;5.33;3.03;;;;;;;;;;10343001;28;20033;-61
2021/01/09 03:56:14;;;;;;;7.67;2.63;;;;;;;;;;10327861;28;20131;-60
2021/01/09 04:01:11;;;;;;;3.40;2.53;;;;;;;;;;10329392;28;20519;-61
2021/01/09 04:06:09;;;;;;;7.97;3.20;;;;;;;;;;10340610;28;20094;-61
2021/01/09 04:11:06;;;;;;;6.57;3.50;;;;;;;;;;10324842;28;20041;-62
2021/01/09 04:16:03;;;;;;;6.67;3.17;;;;;;;;;;10313476;28;20033;-63
2021/01/09 04:21:01;;;;;;;7.27;3.30;;;;;;;;;;10325889;28;20037;-63
2021/01/09 04:25:58;;;;;;;8.33;3.70;;;;;;;;;;10320309;28;20419;-63
2021/01/09 04:30:56;;;;;;;7.53;3.73;;;;;;;;;;10332478;28;20037;-62
2021/01/09 04:35:53;;;;;;;8.00;3.80;;;;;;;;;;10328061;28;20051;-62
2021/01/09 04:40:51;;;;;;;5.17;2.90;;;;;;;;;;10321488;28;20036;-62
2021/01/09 04:45:48;;;;;;;1.80;1.03;;;;;;;;;;10329754;28;20051;-62
2021/01/09 04:50:49;;;;;;;8.30;2.50;;;;;;;;;;10329847;28;20048;-63
2021/01/09 04:55:47;;;;;;;4.40;2.58;;;;;;;;;;10318406;28;20029;-62
2021/01/09 05:00:47;;;;;;;7.43;2.85;;;;;;;;;;10323503;28;20372;-62
2021/01/09 05:05:45;;;;;;;2.45;2.05;;;;;;;;;;10330504;28;20029;-61
2021/01/09 05:10:42;;;;;;;3.23;2.40;;;;;;;;;;10317027;28;20029;-61
2021/01/09 05:15:40;;;;;;;6.73;2.90;;;;;;;;;;10324446;28;20037;-61
2021/01/09 05:20:37;;;;;;;3.20;2.40;;;;;;;;;;10329458;28;20029;-61
2021/01/09 05:25:36;;;;;;;3.07;2.10;;;;;;;;;;10327966;28;20043;-61
2021/01/09 05:30:33;;;;;;;6.57;2.78;;;;;;;;;;10328106;28;20029;-62
2021/01/09 05:35:31;;;;;;;5.47;2.63;;;;;;;;;;10319795;28;20017;-62
2021/01/09 05:40:28;;;;;;;4.90;2.33;;;;;;;;;;10332378;28;20036;-61
2021/01/09 05:45:26;;;;;;;6.20;2.43;;;;;;;;;;10327841;28;20078;-62
2021/01/09 05:50:23;;;;;;;5.57;2.23;;;;;;;;;;10332593;28;20151;-62
2021/01/09 05:55:22;;;;;;;4.40;3.13;;;;;;;;;;10322826;28;20037;-62
2021/01/09 06:00:21;;;;;;;3.45;2.22;;;;;;;;;;10325592;28;20132;-62
2021/01/09 06:05:20;;;;;;;3.75;1.77;;;;;;;;;;10325886;28;20036;-62
2021/01/09 06:10:20;;;;;;;2.58;2.22;;;;;;;;;;10320215;28;20048;-61
2021/01/09 06:15:22;;;;;;;4.70;2.08;;;;;;;;;;10324242;28;20040;-62
2021/01/09 06:20:20;;;;;;;3.00;2.08;;;;;;;;;;10301086;28;20037;-62
2021/01/09 06:25:17;;;;;;;3.55;2.67;;;;;;;;;;10334485;28;20033;-63
2021/01/09 06:30:18;;;;;;;1.83;1.37;;;;;;;;;;10325077;28;20067;-64
2021/01/09 06:35:15;;;;;;;3.13;2.40;;;;;;;;;;10324763;28;20029;-63
2021/01/09 06:40:13;;;;;;;3.20;2.57;;;;;;;;;;10328754;28;20527;-62
2021/01/09 06:45:11;;;;;;;4.15;1.35;;;;;;;;;;10323033;28;21091;-60
2021/01/09 06:50:18;;;;;;;2.25;1.77;;;;;;;;;;10320458;28;20037;-61
2021/01/09 06:55:36;;;;;;;2.63;1.73;;;;;;;;;;10310786;28;20117;-62
2021/01/09 07:00:34;;;;;;;2.65;1.90;;;;;;;;;;10324980;28;20057;-62
2021/01/09 07:05:41;;;;;;;4.88;2.20;;;;;;;;;;10320889;28;20079;-60
2021/01/09 07:10:57;;;;;;;4.93;2.58;;;;;;;;;;10328863;28;20048;-63
2021/01/09 07:16:07;;;;;;;1.75;1.45;;;;;;;;;;10326050;28;20115;-63
2021/01/09 07:21:05;;;;;;;1.77;1.38;;;;;;;;;;10327477;28;20041;-63
2021/01/09 07:26:03;;;;;;;3.65;2.33;;;;;;;;;;10337780;28;20044;-63
2021/01/09 07:31:01;;;;;;;3.10;2.15;;;;;;;;;;10335467;28;20403;-64
2021/01/09 07:35:59;;;;;;;3.00;1.77;;;;;;;;;;10312891;28;20052;-63
2021/01/09 07:41:05;;;;;;;4.85;2.28;;;;;;;;;;10335704;28;20525;-63
2021/01/09 07:46:21;;;;;;;2.00;1.35;;;;;;;;;;10329412;28;20048;-61
2021/01/09 07:51:19;;;;;;;2.10;1.58;;;;;;;;;;10316733;28;20041;-61
2021/01/09 07:56:38;;;;;;;2.00;1.48;;;;;;;;;;10290934;28;20033;-63
2021/01/09 08:01:42;;;;;;;2.80;2.17;;;;;;;;;;10321412;28;20037;-62
2021/01/09 08:06:39;;;;;;;4.53;2.22;;;;;;;;;;10315359;28;20037;-61
2021/01/09 08:11:41;;;;;;;3.83;2.25;;;;;;;;;;10316481;28;20407;-61
2021/01/09 08:16:39;;;;;;;1.75;1.65;;;;;;;;;;10328099;28;20033;-62
2021/01/09 08:21:36;;;;;;;2.90;1.87;;;;;;;;;;10321126;28;20494;-61
2021/01/09 08:26:33;;;;;;;4.50;2.03;;;;;;;;;;10319105;28;21268;-61
2021/01/09 08:31:33;;;;;;;2.53;1.60;;;;;;;;;;10326578;28;20110;-62
2021/01/09 08:36:31;;;;;;;3.60;1.73;;;;;;;;;;10309389;28;20506;-61
2021/01/09 08:41:34;;;;;;;2.53;1.77;;;;;;;;;;10316038;28;20114;-61
2021/01/09 08:46:33;;;;;;;2.65;1.60;;;;;;;;;;10331273;28;20060;-59
2021/01/09 08:51:31;;;;;;;4.57;1.85;;;;;;;;;;10317125;28;20029;-61
2021/01/09 08:56:30;;;;;;;0.73;0.73;;;;;;;;;;10316396;28;20119;-59
2021/01/09 09:01:35;;;;;;;1.85;1.40;;;;;;;;;;10301842;28;20048;-61
2021/01/09 09:06:36;;;;;;;0.80;0.80;;;;;;;;;;10334162;28;20399;-59
2021/01/09 09:11:34;;;;;;;1.60;1.10;;;;;;;;;;10322632;28;20029;-61
2021/01/09 09:16:35;;;;;;;3.03;1.38;;;;;;;;;;10336467;28;20037;-61
2021/01/09 09:21:32;;;;;;;4.38;1.55;;;;;;;;;;10321431;28;20032;-61
2021/01/09 09:26:30;;;;;;;0.50;0.50;;;;;;;;;;10306159;28;20521;-60
2021/01/09 09:31:32;;;;;;;1.13;1.13;;;;;;;;;;10309789;28;20530;-62
2021/01/09 09:36:30;;;;;;;0.70;0.70;;;;;;;;;;10309395;28;20036;-61
2021/01/09 09:41:28;;;;;;;;;;;;;;;;;;10330603;28;20090;-61
2021/01/09 09:46:26;;;;;;;1.23;0.90;;;;;;;;;;10312918;28;19938;-61
2021/01/09 09:51:31;;;;;;;0.57;0.57;;;;;;;;;;10316967;28;20037;-61
2021/01/09 09:56:36;;;;;;;4.32;1.20;;;;;;;;;;10322116;28;20033;-61
2021/01/09 10:01:34;;;;;;;2.97;1.40;;;;;;;;;;10312095;28;20033;-61
2021/01/09 10:06:38;;;;;;;2.30;0.70;;;;;;;;;;10319088;28;20029;-61
2021/01/09 10:11:36;;;;;;;1.83;1.67;;;;;;;;;;10320118;28;20110;-62
2021/01/09 10:16:33;;;;;;;2.57;2.10;;;;;;;;;;10324832;28;20171;-58
2021/01/09 10:21:31;;;;;;;4.10;2.97;;;;;;;;;;10326142;28;20048;-62
2021/01/09 10:26:35;;;;;;;7.32;1.77;;;;;;;;;;10329922;28;20043;-59
2021/01/09 10:31:33;;;;;;;1.33;1.20;;;;;;;;;;10321675;28;20035;-62
2021/01/09 10:36:32;;;;;;;1.13;0.70;;;;;;;;;;10332769;28;20037;-59
2021/01/09 10:41:30;;;;;;;1.65;0.93;;;;;;;;;;10318314;28;20103;-63
2021/01/09 10:46:28;;;;;;;1.40;1.07;;;;;;;;;;10333682;28;20095;-61
2021/01/09 10:51:26;;;;;;;1.40;0.82;;;;;;;;;;10331132;28;20041;-61
2021/01/09 10:56:23;;;;;;;0.98;0.50;;;;;;;;;;10334914;28;20041;-61
2021/01/09 11:01:21;;;;;;;1.00;0.67;;;;;;;;;;10320188;28;20049;-63
2021/01/09 11:06:19;;;;;;;1.17;1.13;;;;;;;;;;10329742;28;20487;-61
2021/01/09 11:11:17;;;;;;;1.65;1.05;;;;;;;;;;10338364;28;20371;-62
2021/01/09 11:16:21;;;;;;;1.77;1.33;;;;;;;;;;10328093;28;20550;-62
2021/01/09 11:21:19;;;;;;;3.10;0.50;;;;;;;;;;10335814;28;20037;-61
2021/01/09 11:26:26;;;;;;;0.80;0.75;;;;;;;;;;10293313;28;20411;-61
2021/01/09 11:31:23;;;;;;;0.60;0.60;;;;;;;;;;10316280;28;20071;-62
2021/01/09 11:36:21;;;;;;;0.60;0.60;;;;;;;;;;10313572;28;20141;-62
2021/01/09 11:41:18;;;;;;;0.70;0.50;;;;;;;;;;10334275;28;20094;-62
2021/01/09 11:46:16;;;;;;;4.23;1.30;;;;;;;;;;10320892;28;20030;-62
2021/01/09 11:51:13;;;;;;;2.37;1.23;;;;;;;;;;10309367;28;20045;-62
2021/01/09 11:56:11;;;;;;;0.90;0.83;;;;;;;;;;10311898;28;20037;-62
2021/01/09 12:01:08;;;;;;;1.03;0.87;;;;;;;;;;10321744;28;20066;-61
2021/01/09 12:06:05;;;;;;;1.07;0.73;;;;;;;;;;10314099;28;20116;-62
2021/01/09 12:11:03;;;;;;;1.00;0.70;;;;;;;;;;10331098;28;20040;-62
2021/01/09 12:16:00;;;;;;;1.97;1.30;;;;;;;;;;10328315;28;20563;-62
2021/01/09 12:20:58;;;;;;;1.83;1.37;;;;;;;;;;10336616;28;20041;-62
2021/01/09 12:25:55;;;;;;;1.30;1.13;;;;;;;;;;10321972;28;20131;-62
2021/01/09 12:30:53;;;;;;;1.20;1.10;;;;;;;;;;10314571;28;20078;-62
2021/01/09 12:35:50;;;;;;;2.97;1.13;;;;;;;;;;10329862;28;20033;-62
2021/01/09 12:40:48;;;;;;;0.33;0.33;;;;;;;;;;10318105;28;20120;-63
2021/01/09 12:45:45;;;;;;;4.17;2.43;;;;;;;;;;10324967;28;20036;-62
2021/01/09 12:50:43;;;;;;;1.57;0.50;;;;;;;;;;10309582;28;20151;-62
2021/01/09 12:55:40;;;;;;;0.63;0.63;;;;;;;;;;10309697;28;20040;-62
2021/01/09 13:00:38;;;;;;;1.03;0.93;;;;;;;;;;10322184;28;20263;-63
2021/01/09 13:05:35;;;;;;;2.03;0.97;;;;;;;;;;10317201;28;20072;-61
2021/01/09 13:10:32;;;;;;;0.73;0.73;;;;;;;;;;10325815;28;20419;-59
2021/01/09 13:15:30;;;;;;;1.00;1.00;;;;;;;;;;10303659;28;20033;-62
2021/01/09 13:20:27;;;;;;;2.43;1.80;;;;;;;;;;10331354;28;20037;-60
2021/01/09 13:25:25;;;;;;;4.40;2.87;;;;;;;;;;10310667;28;20052;-64
2021/01/09 13:30:22;;;;;;;1.83;1.33;;;;;;;;;;10317212;28;20036;-61
2021/01/09 13:35:19;;;;;;;1.03;0.93;;;;;;;;;;10309908;28;20037;-62
2021/01/09 13:40:17;;;;;;;0.80;0.57;;;;;;;;;;10305500;28;20041;-62
2021/01/09 13:45:14;;;;;;;1.03;0.83;;;;;;;;;;10315828;28;20045;-62
2021/01/09 13:50:12;;;;;;;1.97;0.63;;;;;;;;;;10323216;28;20037;-61
2021/01/09 13:55:09;;;;;;;1.87;1.23;;;;;;;;;;10312744;28;20045;-62
2021/01/09 14:00:07;;;;;;;0.63;0.50;;;;;;;;;;10298952;28;20045;-62
2021/01/09 14:05:10;;;;;;;1.92;1.10;;;;;;;;;;10312174;28;20041;-62
2021/01/09 14:10:08;;;;;;;0.70;0.70;;;;;;;;;;10293180;28;20063;-62
2021/01/09 14:15:06;;;;;;;1.37;1.00;;;;;;;;;;10334803;28;20049;-61
2021/01/09 14:20:04;;;;;;;6.30;3.10;;;;;;;;;;10310358;28;20779;-61
2021/01/09 14:25:02;;;;;;;0.45;0.45;;;;;;;;;;10320613;28;20098;-62
2021/01/09 14:29:59;;;;;;;1.30;1.10;;;;;;;;;;10325436;28;20059;-61
2021/01/09 14:34:56;;;;;;;3.63;1.93;;;;;;;;;;10310589;28;20642;-62
2021/01/09 14:39:54;;;;;;;2.47;1.07;;;;;;;;;;10317290;28;20037;-61
2021/01/09 14:44:51;;;;;;;0.53;0.43;;;;;;;;;;10325290;28;20057;-61
2021/01/09 14:49:51;;;;;;;3.30;1.40;;;;;;;;;;10316956;28;20052;-61
2021/01/09 14:54:48;;;;;;;2.60;1.48;;;;;;;;;;10304511;28;20048;-62
2021/01/09 14:59:45;;;;;;;3.73;1.77;;;;;;;;;;10305829;28;20098;-62
2021/01/09 15:04:43;;;;;;;1.97;1.33;;;;;;;;;;10319495;28;20029;-60
2021/01/09 15:09:42;;;;;;;5.93;2.60;;;;;;;;;;10326168;28;20043;-60
2021/01/09 15:14:39;;;;;;;3.65;1.85;;;;;;;;;;10325018;28;20071;-63
2021/01/09 15:19:38;;;;;;;4.60;2.70;;;;;;;;;;10313043;28;20129;-63
2021/01/09 15:24:36;;;;;;;2.42;1.85;;;;;;;;;;10285653;28;20044;-61
2021/01/09 15:29:33;;;;;;;2.30;1.30;;;;;;;;;;10302270;28;20041;-61
2021/01/09 15:34:30;;;;;;;2.60;1.53;;;;;;;;;;10328873;28;20167;-62
2021/01/09 15:39:28;;;;;;;2.67;1.43;;;;;;;;;;10333487;28;20099;-62
2021/01/09 15:44:26;;;;;;;2.90;1.67;;;;;;;;;;10312199;28;20415;-61
2021/01/09 15:49:24;;;;;;;4.10;1.80;;;;;;;;;;10323875;28;20052;-62
2021/01/09 15:54:22;;;;;;;9.60;1.80;;;;;;;;;;10319797;28;20067;-61
2021/01/09 15:59:19;;;;;;;3.53;2.83;;;;;;;;;;10310432;28;20139;-62
2021/01/09 16:04:17;;;;;;;3.17;2.27;;;;;;;;;;10316328;28;20055;-60
2021/01/09 16:09:14;;;;;;;2.70;2.23;;;;;;;;;;10332645;28;20045;-61
2021/01/09 16:14:11;;;;;;;2.83;2.33;;;;;;;;;;10324076;28;20052;-61
2021/01/09 16:19:09;;;;;;;2.63;2.33;;;;;;;;;;10298742;28;20029;-60
2021/01/09 16:24:06;;;;;;;2.90;2.37;;;;;;;;;;10306598;28;20041;-62
2021/01/09 16:29:04;;;;;;;1.87;1.73;;;;;;;;;;10311713;28;20080;-61
2021/01/09 16:34:02;;;;;;;1.67;1.53;;;;;;;;;;10330205;28;20446;-61
2021/01/09 16:38:59;;;;;;;1.90;1.35;;;;;;;;;;10317049;28;20116;-61
2021/01/09 16:43:57;;;;;;;5.33;2.47;;;;;;;;;;10328816;28;20119;-58
2021/01/09 16:48:54;;;;;;;3.50;1.90;;;;;;;;;;10311931;28;20045;-63
2021/01/09 16:53:52;;;;;;;2.07;1.07;;;;;;;;;;10306140;28;20284;-62
2021/01/09 16:58:50;;;;;;;5.57;3.23;;;;;;;;;;10332507;28;20132;-61
2021/01/09 17:03:47;;;;;;;1.00;0.77;;;;;;;;;;10332714;28;20682;-61
2021/01/09 17:08:44;;;;;;;1.40;1.17;;;;;;;;;;10323997;28;20582;-62
2021/01/09 17:13:42;;;;;;;0.70;0.57;;;;;;;;;;10330329;28;20071;-62
2021/01/09 17:18:40;;;;;;;0.60;0.57;;;;;;;;;;10313067;28;20041;-61
2021/01/09 17:23:37;;;;;;;2.35;1.13;;;;;;;;;;10338488;28;20032;-61
2021/01/09 17:28:35;;;;;;;2.57;2.27;;;;;;;;;;10327993;28;20040;-61
2021/01/09 17:33:32;;;;;;;2.43;2.20;;;;;;;;;;10303526;28;20518;-61
2021/01/09 17:38:29;;;;;;;3.63;2.07;;;;;;;;;;10328191;28;20040;-59
2021/01/09 17:43:27;;;;;;;7.67;2.37;;;;;;;;;;10317743;28;20041;-60
2021/01/09 17:48:24;;;;;;;6.13;2.80;;;;;;;;;;10293063;28;20102;-62
2021/01/09 17:53:21;;;;;;;6.37;3.60;;;;;;;;;;10304634;28;20064;-62
2021/01/09 17:58:19;;;;;;;7.37;4.17;;;;;;;;;;10323539;28;20061;-62
2021/01/09 18:03:18;;;;;;;7.40;3.72;;;;;;;;;;10319802;28;20033;-61
2021/01/09 18:08:16;;;;;;;6.63;3.50;;;;;;;;;;10331121;28;20045;-63
2021/01/09 18:13:13;;;;;;;7.33;4.40;;;;;;;;;;10328451;28;20029;-62
2021/01/09 18:18:11;;;;;;;7.10;4.20;;;;;;;;;;10322715;28;20128;-62
2021/01/09 18:23:10;;;;;;;5.43;3.30;;;;;;;;;;10319223;28;20056;-62
2021/01/09 18:28:10;;;;;;;8.30;4.30;;;;;;;;;;10321298;28;20041;-61
2021/01/09 18:33:10;;;;;;;11.20;5.00;;;;;;;;;;10330984;28;20131;-60
2021/01/09 18:38:08;;;;;;;;;;;;;;;;;;10320906;28;20103;-61
2021/01/09 18:43:06;;;;;;;9.93;4.63;;;;;;;;;;10309434;28;19921;-61
2021/01/09 18:48:13;;;;;;;10.85;5.10;;;;;;;;;;10307360;28;20064;-62
2021/01/09 18:53:21;;;;;;;10.27;4.70;;;;;;;;;;10318701;28;20085;-61
2021/01/09 18:58:24;;;;;;;9.07;4.93;;;;;;;;;;10314627;28;20033;-61
2021/01/09 19:03:28;;;;;;;7.07;4.10;;;;;;;;;;10319403;28;20048;-61
2021/01/09 19:08:30;;;;;;;11.10;4.18;;;;;;;;;;10348874;28;20067;-61
2021/01/09 19:13:28;;;;;;;;;;;;;;;;;;10312430;28;20041;-61
2021/01/09 19:18:25;;;;;;;7.47;3.92;;;;;;;;;;10328814;28;19935;-62
2021/01/09 19:23:31;;;;;;;6.57;3.63;;;;;;;;;;10318873;28;20058;-61
2021/01/09 19:28:31;;;;;;;8.82;3.92;;;;;;;;;;10310245;28;20660;-60
2021/01/09 19:33:37;;;;;;;6.15;3.78;;;;;;;;;;10316913;28;20033;-63
2021/01/09 19:38:36;;;;;;;8.00;3.72;;;;;;;;;;10328234;28;20041;-63
2021/01/09 19:43:34;;;;;;;8.90;4.40;;;;;;;;;;10308526;28;20071;-62
2021/01/09 19:48:37;;;;;;;5.82;3.60;;;;;;;;;;10320329;28;20116;-61
2021/01/09 19:53:35;;;;;;;7.43;4.00;;;;;;;;;;10303553;28;20044;-62
2021/01/09 19:58:33;;;;;;;8.88;4.75;;;;;;;;;;10322993;28;20306;-61
2021/01/09 20:03:31;;;;;;;10.27;4.18;;;;;;;;;;10320955;28;20045;-62
2021/01/09 20:08:36;;;;;;;5.95;3.83;;;;;;;;;;10327371;28;20045;-59
2021/01/09 20:13:33;;;;;;;7.07;4.47;;;;;;;;;;10325069;28;20033;-62
2021/01/09 20:18:35;;;;;;;9.75;5.07;;;;;;;;;;10338284;28;20025;-59
2021/01/09 20:23:33;;;;;;;9.13;4.55;;;;;;;;;;10338661;28;20029;-62
2021/01/09 20:28:33;;;;;;;15.65;5.38;;;;;;;;;;10319423;28;20115;-59
2021/01/09 20:33:31;;;;;;;12.18;6.03;;;;;;;;;;10325189;28;20686;-61
2021/01/09 20:38:29;;;;;;;7.23;4.60;;;;;;;;;;10322339;28;20037;-61
2021/01/09 20:43:27;;;;;;;10.02;4.45;;;;;;;;;;10321616;28;20120;-61
2021/01/09 20:48:24;;;;;;;14.50;6.27;;;;;;;;;;10342808;28;20033;-62
2021/01/09 20:53:22;;;;;;;10.47;5.63;;;;;;;;;;10332827;28;20124;-63
2021/01/09 20:58:21;;;;;;;9.93;4.97;;;;;;;;;;10321830;28;20453;-61
2021/01/09 21:03:18;;;;;;;10.05;6.05;;;;;;;;;;10334255;28;20614;-62
2021/01/09 21:08:16;;;;;;;15.33;6.37;;;;;;;;;;10327985;28;20036;-61
2021/01/09 21:13:14;;;;;;;8.23;5.60;;;;;;;;;;10299648;28;20033;-62
2021/01/09 21:18:11;;;;;;;16.10;7.65;;;;;;;;;;10314270;28;20029;-61
2021/01/09 21:23:09;;;;;;;14.63;7.70;;;;;;;;;;10293708;28;20186;-61
2021/01/09 21:28:07;;;;;;;11.25;5.88;;;;;;;;;;10328983;28;20301;-61
2021/01/09 21:33:05;;;;;;;13.83;7.07;;;;;;;;;;10331025;28;20142;-60
2021/01/09 21:38:04;;;;;;;12.35;6.35;;;;;;;;;;10333700;28;20106;-61
2021/01/09 21:43:02;;;;;;;10.45;6.22;;;;;;;;;;10325636;28;20040;-61
2021/01/09 21:47:59;;;;;;;16.27;6.87;;;;;;;;;;10324565;28;20051;-62
2021/01/09 21:53:00;;;;;;;8.70;5.37;;;;;;;;;;10302250;28;20040;-62
2021/01/09 21:57:58;;;;;;;4.28;3.33;;;;;;;;;;10328223;28;20503;-62
2021/01/09 22:02:55;;;;;;;11.27;4.63;;;;;;;;;;10328062;28;20052;-62
2021/01/09 22:07:53;;;;;;;8.07;5.30;;;;;;;;;;10320465;28;20037;-62
2021/01/09 22:12:51;;;;;;;6.93;5.20;;;;;;;;;;10322900;28;20174;-61
2021/01/09 22:17:48;;;;;;;9.02;5.38;;;;;;;;;;10317214;28;20617;-61
2021/01/09 22:22:53;;;;;;;12.77;6.68;;;;;;;;;;10315655;28;20048;-61
2021/01/09 22:27:51;;;;;;;10.32;4.68;;;;;;;;;;10320952;28;20045;-61
2021/01/09 22:32:52;;;;;;;10.68;7.03;;;;;;;;;;10323406;28;20499;-63
2021/01/09 22:37:50;;;;;;;11.93;5.47;;;;;;;;;;10302773;28;20107;-60
2021/01/09 22:42:47;;;;;;;6.15;4.00;;;;;;;;;;10322311;28;20087;-60
2021/01/09 22:47:46;;;;;;;10.17;5.10;;;;;;;;;;10329466;28;20401;-64
2021/01/09 22:52:46;;;;;;;6.57;4.25;;;;;;;;;;10326898;28;20534;-62
2021/01/09 22:57:43;;;;;;;16.80;6.05;;;;;;;;;;10325904;28;20048;-63
2021/01/09 23:02:41;;;;;;;7.97;4.07;;;;;;;;;;10335682;28;21342;-63
2021/01/09 23:07:38;;;;;;;13.90;6.53;;;;;;;;;;10339562;28;20080;-59
2021/01/09 23:12:36;;;;;;;11.95;6.90;;;;;;;;;;10342114;28;20082;-61
2021/01/09 23:17:34;;;;;;;15.13;7.83;;;;;;;;;;10330922;28;20063;-61
2021/01/09 23:22:32;;;;;;;13.93;7.30;;;;;;;;;;10319252;28;20380;-62
2021/01/09 23:27:29;;;;;;;10.48;5.10;;;;;;;;;;10333955;28;20274;-61
2021/01/09 23:32:26;;;;;;;12.07;6.83;;;;;;;;;;10317468;28;20029;-61
2021/01/09 23:37:26;;;;;;;14.30;6.60;;;;;;;;;;10322919;28;20040;-59
2021/01/09 23:42:26;;;;;;;14.68;6.68;;;;;;;;;;10330862;28;20848;-59
2021/01/09 23:47:23;;;;;;;9.88;5.43;;;;;;;;;;10319501;28;20041;-59
2021/01/09 23:52:20;;;;;;;8.83;4.83;;;;;;;;;;10297637;28;20051;-59
2021/01/09 23:57:18;;;;;;;12.50;5.43;;;;;;;;;;10321527;28;20033;-60
